In Rescue
 
Open Full Screen Window  High Contrast Mode
Wind Gusting 00 knots
04
September 19, 2019 3:59 PM CDT
Weather Information
Wind Direction
  190 °
Wind Speed
  04 kt (5 mph)
Wind Gust
  00 kt (0 mph)
Altimeter
30.00 in
Visibility
10 SM
Temperature
26° C
79° F
Dewpoint
19° C
66° F
Humidity
65%
1hr Rain Fall
00.00 in.
24hr Rain Fall
00.09 in.
Sky Condition
Scattered @ 5,000 ft
Scattered @ 2,600 ft
VFR

METAR KACQ 192059Z AUTO 19004KT 10SM SCT026 SCT050 26/19 A3000 RMK AO2

FAA Disclaimer: The data displayed is for advisory purposes only and is not to be used for flight planning or operations.